Time;durP1;ratioP1;P1;durP2;ratioP2;P2;SDS_P1;SDS_P2;PMS_P1;PMS_P2;Temp;Humidity;BMP_temperature;BMP_pressure;BME280_temperature;BME280_humidity;BME280_pressure;Samples;Min_cycle;Max_cycle;Signal;HPM_P1;HPM_P2
2023/04/27 00:00:28;;;;;;;5.03;3.63;;;8.80;99.90;;;;;;5038260;28;20701;-37
2023/04/27 00:02:54;;;;;;;6.53;4.30;;;8.80;99.90;;;;;;5053742;28;20183;-36
2023/04/27 00:05:20;;;;;;;5.67;4.10;;;8.80;99.90;;;;;;5054430;28;20217;-36
2023/04/27 00:07:46;;;;;;;5.70;4.07;;;8.80;99.90;;;;;;5054613;28;20254;-37
2023/04/27 00:10:12;;;;;;;5.30;3.80;;;8.80;99.90;;;;;;5054524;28;20286;-38
2023/04/27 00:12:40;;;;;;;5.07;3.93;;;8.90;99.90;;;;;;5054604;28;20220;-36
2023/04/27 00:15:07;;;;;;;12.00;5.37;;;8.90;99.90;;;;;;5054485;28;20237;-38
2023/04/27 00:17:33;;;;;;;10.67;5.87;;;8.90;99.90;;;;;;5054482;28;20173;-37
2023/04/27 00:19:59;;;;;;;10.30;5.77;;;8.80;99.90;;;;;;5054373;28;20180;-36
2023/04/27 00:22:25;;;;;;;9.47;4.93;;;8.80;99.90;;;;;;5057882;28;20185;-37
2023/04/27 00:24:51;;;;;;;8.20;4.60;;;8.70;99.90;;;;;;5037348;28;20213;-37
2023/04/27 00:27:17;;;;;;;6.23;3.70;;;8.70;99.90;;;;;;5070805;28;20310;-38
2023/04/27 00:29:43;;;;;;;6.53;3.83;;;8.60;99.90;;;;;;5053873;28;20231;-36
2023/04/27 00:32:10;;;;;;;7.10;4.30;;;8.60;99.90;;;;;;5053454;28;20181;-36
2023/04/27 00:34:36;;;;;;;5.20;4.07;;;8.60;99.90;;;;;;5069979;28;20212;-36
2023/04/27 00:37:03;;;;;;;4.63;3.97;;;8.60;99.90;;;;;;5062939;28;20183;-38
2023/04/27 00:39:30;;;;;;;5.37;3.80;;;8.70;99.90;;;;;;5036366;28;20170;-36
2023/04/27 00:41:55;;;;;;;6.63;4.53;;;8.70;99.90;;;;;;5050946;28;20170;-36
2023/04/27 00:44:26;;;;;;;4.70;4.20;;;8.80;99.90;;;;;;5051300;28;20554;-36
2023/04/27 00:46:52;;;;;;;8.37;4.67;;;8.80;99.90;;;;;;5049761;28;20178;-37
2023/04/27 00:49:22;;;;;;;5.83;4.50;;;8.80;99.90;;;;;;5040379;28;20267;-39
2023/04/27 00:51:48;;;;;;;5.73;4.20;;;8.80;99.90;;;;;;5034067;28;20760;-36
2023/04/27 00:54:20;;;;;;;6.30;4.13;;;8.80;99.90;;;;;;5033849;28;20198;-37
2023/04/27 00:56:50;;;;;;;6.17;4.00;;;8.80;99.90;;;;;;5034046;28;20180;-37
2023/04/27 00:59:17;;;;;;;7.00;4.40;;;8.80;99.90;;;;;;5032474;28;20189;-37
2023/04/27 01:01:47;;;;;;;6.27;3.77;;;8.70;99.90;;;;;;5034271;28;20231;-37
2023/04/27 01:04:13;;;;;;;5.00;3.80;;;8.70;99.90;;;;;;5032962;28;20229;-36
2023/04/27 01:06:39;;;;;;;5.53;4.00;;;8.60;99.90;;;;;;5043864;28;20198;-37
2023/04/27 01:09:05;;;;;;;6.00;4.13;;;8.60;99.90;;;;;;5053841;28;20209;-36
2023/04/27 01:11:32;;;;;;;6.07;3.77;;;8.60;99.90;;;;;;5037002;28;20256;-36
2023/04/27 01:14:05;;;;;;;4.20;3.80;;;8.60;99.90;;;;;;5052714;28;20220;-39
2023/04/27 01:16:32;;;;;;;7.73;3.87;;;8.60;99.90;;;;;;5071277;28;20208;-38
2023/04/27 01:18:58;;;;;;;6.30;4.40;;;8.60;99.90;;;;;;5052897;28;20216;-38
2023/04/27 01:21:25;;;;;;;4.50;4.10;;;8.60;99.90;;;;;;5052685;28;20204;-37
2023/04/27 01:23:51;;;;;;;6.27;4.37;;;8.60;99.90;;;;;;5053132;28;20239;-36
2023/04/27 01:26:17;;;;;;;5.57;4.10;;;8.60;99.90;;;;;;5069810;28;20184;-37
2023/04/27 01:28:43;;;;;;;7.53;3.97;;;8.50;99.90;;;;;;5071268;28;20295;-37
2023/04/27 01:31:14;;;;;;;6.13;4.13;;;8.50;99.90;;;;;;5053714;28;20181;-37
2023/04/27 01:33:41;;;;;;;7.20;4.67;;;8.40;99.90;;;;;;5050425;28;20250;-38
2023/04/27 01:36:08;;;;;;;8.63;4.27;;;8.40;99.90;;;;;;5052843;28;20208;-36
2023/04/27 01:38:34;;;;;;;7.77;4.53;;;8.40;99.90;;;;;;5069889;28;20208;-36
2023/04/27 01:41:02;;;;;;;6.03;4.13;;;8.40;99.90;;;;;;5069635;28;20185;-40
2023/04/27 01:43:30;;;;;;;4.73;4.20;;;8.30;99.90;;;;;;5052953;28;20212;-36
2023/04/27 01:46:09;;;;;;;5.60;4.60;;;8.20;99.90;;;;;;5052579;28;20177;-40
2023/04/27 01:48:35;;;;;;;6.63;4.10;;;8.20;99.90;;;;;;5069347;28;20205;-39
2023/04/27 01:51:01;;;;;;;4.93;4.23;;;8.20;99.90;;;;;;5053075;28;20177;-37
2023/04/27 01:53:27;;;;;;;5.20;4.17;;;8.20;99.90;;;;;;5053175;28;20184;-37
2023/04/27 01:55:53;;;;;;;5.00;4.03;;;8.10;99.90;;;;;;5071941;28;20182;-37
2023/04/27 01:58:19;;;;;;;5.60;4.00;;;8.20;99.90;;;;;;5052979;28;20260;-36
2023/04/27 02:00:47;;;;;;;5.67;4.23;;;8.20;99.90;;;;;;5052925;28;20184;-40
2023/04/27 02:03:13;;;;;;;5.37;3.60;;;8.20;99.90;;;;;;5069724;28;20177;-37
2023/04/27 02:05:39;;;;;;;5.20;4.50;;;8.20;99.90;;;;;;5052316;28;20215;-38
2023/04/27 02:08:05;;;;;;;6.90;4.87;;;8.20;99.90;;;;;;5042360;28;20329;-38
2023/04/27 02:10:31;;;;;;;6.03;4.57;;;8.20;99.90;;;;;;5052359;28;20181;-38
2023/04/27 02:12:56;;;;;;;7.63;5.17;;;8.20;99.90;;;;;;5069720;28;20173;-37
2023/04/27 02:15:23;;;;;;;6.10;4.90;;;8.20;99.90;;;;;;5069336;28;20337;-38
2023/04/27 02:17:48;;;;;;;8.33;5.03;;;8.20;99.90;;;;;;5052919;28;20181;-39
2023/04/27 02:20:14;;;;;;;6.70;5.13;;;8.20;99.90;;;;;;5053283;28;20197;-39
2023/04/27 02:22:44;;;;;;;8.27;4.60;;;8.30;99.90;;;;;;5052687;28;20177;-39
2023/04/27 02:25:11;;;;;;;6.80;5.30;;;8.30;99.90;;;;;;5068984;28;20208;-39
2023/04/27 02:27:38;;;;;;;7.03;5.33;;;8.30;99.90;;;;;;5068983;28;20193;-37
2023/04/27 02:30:06;;;;;;;7.30;4.77;;;8.20;99.90;;;;;;5052442;28;20177;-36
2023/04/27 02:32:32;;;;;;;6.07;4.90;;;8.20;99.90;;;;;;5053092;28;20200;-37
2023/04/27 02:34:58;;;;;;;5.77;4.77;;;8.20;99.90;;;;;;5069170;28;20226;-36
2023/04/27 02:37:26;;;;;;;7.10;4.90;;;8.20;99.90;;;;;;5044316;28;20173;-39
2023/04/27 02:39:52;;;;;;;7.93;4.97;;;8.20;99.90;;;;;;5035849;28;20184;-39
2023/04/27 02:42:18;;;;;;;6.13;4.57;;;8.20;99.90;;;;;;5036094;28;20181;-38
2023/04/27 02:44:44;;;;;;;8.30;4.93;;;8.10;99.90;;;;;;5036182;28;20192;-37
2023/04/27 02:47:11;;;;;;;7.23;4.77;;;8.10;99.90;;;;;;5070521;28;20179;-39
2023/04/27 02:49:37;;;;;;;6.13;4.90;;;8.10;99.90;;;;;;5052607;28;20213;-38
2023/04/27 02:52:03;;;;;;;6.47;5.27;;;8.00;99.90;;;;;;5036122;28;20185;-37
2023/04/27 02:54:29;;;;;;;6.40;5.50;;;8.00;99.90;;;;;;5052558;28;20205;-38
2023/04/27 02:56:56;;;;;;;9.00;5.27;;;7.90;99.90;;;;;;5052384;28;20173;-40
2023/04/27 02:59:22;;;;;;;5.63;5.03;;;7.90;99.90;;;;;;5055736;28;20212;-39
2023/04/27 03:01:47;;;;;;;7.13;4.87;;;7.90;99.90;;;;;;5039225;28;20282;-39
2023/04/27 03:04:13;;;;;;;8.23;5.20;;;7.90;99.90;;;;;;5056118;28;20254;-37
2023/04/27 03:06:43;;;;;;;7.47;5.10;;;7.90;99.90;;;;;;5047239;28;20188;-37
2023/04/27 03:09:10;;;;;;;8.57;5.50;;;7.90;99.90;;;;;;5055468;28;20301;-39
2023/04/27 03:11:36;;;;;;;5.57;4.90;;;7.90;99.90;;;;;;5055718;28;20291;-39
2023/04/27 03:14:04;;;;;;;5.77;4.50;;;7.90;99.90;;;;;;5055305;28;20209;-39
2023/04/27 03:16:34;;;;;;;7.53;5.33;;;7.90;99.90;;;;;;5072406;28;20181;-37
2023/04/27 03:19:00;;;;;;;8.50;4.73;;;8.00;99.90;;;;;;5056164;28;20184;-41
2023/04/27 03:21:27;;;;;;;7.63;5.13;;;7.90;99.90;;;;;;5055488;28;20181;-36
2023/04/27 03:23:53;;;;;;;5.57;4.93;;;7.90;99.90;;;;;;5055224;28;20201;-37
2023/04/27 03:26:20;;;;;;;8.20;5.20;;;7.90;99.90;;;;;;5055738;28;20169;-39
2023/04/27 03:28:46;;;;;;;9.87;5.23;;;7.90;99.90;;;;;;5055278;28;20209;-37
2023/04/27 03:31:13;;;;;;;6.23;4.77;;;7.90;99.90;;;;;;5055468;28;20180;-38
2023/04/27 03:33:40;;;;;;;7.50;4.97;;;7.90;99.90;;;;;;5038852;28;20253;-39
2023/04/27 03:36:07;;;;;;;7.00;4.90;;;7.90;99.90;;;;;;5055025;28;20185;-37
2023/04/27 03:38:34;;;;;;;6.10;5.00;;;7.90;99.90;;;;;;5038682;28;20205;-39
2023/04/27 03:41:07;;;;;;;7.30;4.60;;;7.90;99.90;;;;;;5094127;28;20174;-39
2023/04/27 03:44:13;;;;;;;8.00;5.40;;;7.90;99.90;;;;;;5081511;28;20219;-39
2023/04/27 03:46:50;;;;;;;7.67;4.93;;;7.80;99.90;;;;;;5114710;22;20240;-86
2023/04/27 03:49:21;;;;;;;7.33;4.87;;;7.90;99.90;;;;;;5018796;28;20244;-86
2023/04/27 03:51:50;;;;;;;9.20;5.50;;;7.90;99.90;;;;;;5016365;28;20226;-86
2023/04/27 03:54:21;;;;;;;5.90;4.70;;;7.80;99.90;;;;;;5052313;28;20178;-86
2023/04/27 03:56:54;;;;;;;7.70;5.40;;;7.90;99.90;;;;;;5017978;28;20177;-86
2023/04/27 03:59:32;;;;;;;8.77;5.50;;;7.90;99.90;;;;;;5050564;28;20248;-87
2023/04/27 04:02:08;;;;;;;7.63;5.10;;;7.90;99.90;;;;;;5035211;28;20212;-87
2023/04/27 04:04:35;;;;;;;8.80;4.97;;;7.90;99.90;;;;;;5033717;28;20212;-86
2023/04/27 04:07:02;;;;;;;8.63;5.50;;;7.90;99.90;;;;;;5016183;28;20289;-84
2023/04/27 04:09:28;;;;;;;6.40;4.83;;;7.80;99.90;;;;;;5046915;28;20316;-86
2023/04/27 04:12:00;;;;;;;8.57;4.70;;;7.80;99.90;;;;;;5034208;28;20581;-87
2023/04/27 04:14:27;;;;;;;9.57;5.10;;;7.80;99.90;;;;;;5051009;28;20181;-87
2023/04/27 04:16:53;;;;;;;6.63;5.53;;;7.70;99.90;;;;;;5033628;28;20177;-85
2023/04/27 04:19:20;;;;;;;9.17;4.80;;;7.70;99.90;;;;;;5051307;28;20232;-87
2023/04/27 04:21:46;;;;;;;6.93;4.73;;;7.70;99.90;;;;;;5051338;28;20202;-87
2023/04/27 04:24:14;;;;;;;6.63;5.00;;;7.70;99.90;;;;;;5034478;28;20185;-87
2023/04/27 04:26:40;;;;;;;6.27;4.97;;;7.70;99.90;;;;;;5033685;28;20273;-87
2023/04/27 04:29:07;;;;;;;10.37;6.23;;;7.80;99.90;;;;;;5034893;28;20292;-86
2023/04/27 04:31:33;;;;;;;8.07;4.80;;;7.80;99.90;;;;;;5032698;28;20189;-86
2023/04/27 04:34:00;;;;;;;8.70;5.60;;;7.80;99.90;;;;;;5034757;28;20266;-87
2023/04/27 04:36:27;;;;;;;8.73;5.60;;;7.80;99.90;;;;;;5033870;28;20174;-87
2023/04/27 04:38:55;;;;;;;6.20;5.43;;;7.80;99.90;;;;;;5033528;28;20213;-87
2023/04/27 04:41:22;;;;;;;8.27;5.13;;;7.90;99.90;;;;;;5018247;28;20178;-87
2023/04/27 04:43:48;;;;;;;7.93;5.13;;;7.90;99.90;;;;;;5017544;28;20182;-86
2023/04/27 04:46:16;;;;;;;6.00;4.60;;;7.90;99.90;;;;;;5015553;28;20190;-86
2023/04/27 04:48:42;;;;;;;6.23;5.20;;;7.90;99.90;;;;;;5013436;28;20308;-85
2023/04/27 04:51:08;;;;;;;6.60;5.23;;;7.90;99.90;;;;;;5014170;28;20179;-86
2023/04/27 04:53:35;;;;;;;6.97;5.07;;;7.90;99.90;;;;;;5014117;28;20186;-86
2023/04/27 04:56:09;;;;;;;8.90;4.83;;;7.80;99.90;;;;;;5031228;28;20212;-86
2023/04/27 04:58:35;;;;;;;7.17;4.83;;;7.70;99.90;;;;;;5016573;28;20212;-86
2023/04/27 05:01:05;;;;;;;6.50;4.43;;;7.70;99.90;;;;;;5017428;28;20192;-86
2023/04/27 05:03:35;;;;;;;4.93;4.43;;;7.70;99.90;;;;;;5016866;28;20215;-86
2023/04/27 05:06:05;;;;;;;6.10;4.40;;;7.70;99.90;;;;;;5023642;28;20242;-86
2023/04/27 05:08:33;;;;;;;5.33;4.30;;;7.70;99.90;;;;;;5032685;28;20216;-86
2023/04/27 05:10:59;;;;;;;5.80;4.40;;;7.70;99.90;;;;;;5017144;28;20170;-86
2023/04/27 05:13:27;;;;;;;9.67;4.63;;;7.70;99.90;;;;;;5017038;28;20181;-85
2023/04/27 05:15:55;;;;;;;8.40;4.80;;;7.70;99.90;;;;;;5017050;28;20174;-86
2023/04/27 05:18:22;;;;;;;9.13;4.50;;;7.70;99.90;;;;;;5017961;28;20206;-86
2023/04/27 05:20:51;;;;;;;6.37;4.70;;;7.80;99.90;;;;;;5012858;28;20190;-86
2023/04/27 05:23:18;;;;;;;5.20;4.60;;;7.80;99.90;;;;;;5013319;28;20186;-86
2023/04/27 05:25:48;;;;;;;6.07;4.87;;;7.80;99.90;;;;;;5030726;28;20179;-86
2023/04/27 05:28:15;;;;;;;8.50;5.20;;;7.80;99.90;;;;;;5013151;28;20211;-86
2023/04/27 05:30:41;;;;;;;8.43;5.17;;;7.80;99.90;;;;;;5013502;28;20262;-86
2023/04/27 05:33:07;;;;;;;7.53;5.07;;;7.90;99.90;;;;;;5031087;28;20273;-86
2023/04/27 05:35:33;;;;;;;6.20;4.77;;;8.00;99.90;;;;;;5021864;28;20189;-86
2023/04/27 05:38:00;;;;;;;7.53;4.73;;;8.00;99.90;;;;;;5040794;28;20216;-86
2023/04/27 05:40:26;;;;;;;6.70;5.23;;;8.10;99.90;;;;;;5015714;28;20181;-86
2023/04/27 05:42:51;;;;;;;8.03;5.03;;;8.20;99.90;;;;;;4997194;28;20193;-86
2023/04/27 05:45:17;;;;;;;8.00;5.63;;;8.30;99.90;;;;;;5019504;28;20223;-86
2023/04/27 05:47:43;;;;;;;6.83;5.07;;;8.30;99.90;;;;;;5011985;28;20222;-86
2023/04/27 05:50:10;;;;;;;7.73;4.73;;;8.40;99.90;;;;;;5015641;28;20181;-73
2023/04/27 05:52:37;;;;;;;8.57;5.07;;;8.50;99.90;;;;;;5050592;28;20177;-86
2023/04/27 05:55:04;;;;;;;7.43;5.30;;;8.60;99.90;;;;;;4998962;28;20189;-86
2023/04/27 05:57:31;;;;;;;6.20;5.20;;;8.70;99.90;;;;;;5032855;28;20198;-86
2023/04/27 05:59:56;;;;;;;5.57;4.80;;;8.70;99.90;;;;;;5039950;28;20185;-86
2023/04/27 06:02:23;;;;;;;5.90;5.00;;;8.80;99.90;;;;;;5036918;28;20186;-86
2023/04/27 06:04:49;;;;;;;8.83;5.73;;;8.90;99.90;;;;;;5020107;28;20185;-86
2023/04/27 06:07:15;;;;;;;7.60;5.20;;;8.90;99.90;;;;;;5019954;28;20259;-86
2023/04/27 06:09:42;;;;;;;5.50;5.00;;;9.00;99.90;;;;;;4996650;28;20214;-86
2023/04/27 06:12:08;;;;;;;7.80;4.97;;;9.00;99.90;;;;;;5029139;28;20260;-86
2023/04/27 06:14:36;;;;;;;9.77;6.00;;;9.00;99.90;;;;;;5011973;28;20257;-86
2023/04/27 06:17:03;;;;;;;6.37;5.07;;;9.10;99.90;;;;;;5011547;28;20709;-86
2023/04/27 06:19:29;;;;;;;6.40;5.20;;;9.20;99.90;;;;;;4996585;28;20214;-86
2023/04/27 06:21:55;;;;;;;6.43;4.97;;;9.30;99.90;;;;;;5012754;28;20202;-86
2023/04/27 06:24:22;;;;;;;8.00;5.07;;;9.40;99.90;;;;;;4996250;28;20723;-86
2023/04/27 06:26:51;;;;;;;5.93;4.70;;;9.40;99.90;;;;;;5030379;28;20179;-86
2023/04/27 06:29:17;;;;;;;5.53;5.00;;;9.30;99.90;;;;;;5012048;28;20214;-86
2023/04/27 06:31:43;;;;;;;7.60;4.93;;;9.40;99.90;;;;;;5010814;28;20171;-86
2023/04/27 06:34:09;;;;;;;9.23;5.43;;;9.40;99.90;;;;;;5015453;28;20178;-86
2023/04/27 06:36:35;;;;;;;8.90;5.10;;;9.40;99.90;;;;;;5025100;28;20186;-86
2023/04/27 06:39:01;;;;;;;8.67;5.17;;;9.50;99.90;;;;;;5026400;28;20229;-86
2023/04/27 06:41:27;;;;;;;7.23;4.80;;;9.60;99.90;;;;;;5036314;28;20224;-86
2023/04/27 06:43:53;;;;;;;6.53;5.00;;;9.70;99.90;;;;;;5035939;28;20185;-86
2023/04/27 06:46:19;;;;;;;8.23;5.30;;;9.60;99.90;;;;;;5034860;28;20197;-86
2023/04/27 06:48:45;;;;;;;8.50;5.47;;;9.80;99.90;;;;;;5035848;28;20216;-86
2023/04/27 06:51:12;;;;;;;7.63;5.30;;;9.80;99.90;;;;;;5019575;28;20170;-86
2023/04/27 06:53:38;;;;;;;5.23;4.73;;;9.80;99.90;;;;;;5018494;28;20174;-86
2023/04/27 06:56:06;;;;;;;8.73;5.47;;;9.90;99.90;;;;;;5016881;28;20289;-86
2023/04/27 06:58:31;;;;;;;9.10;5.90;;;10.10;99.90;;;;;;5018794;28;20292;-86
2023/04/27 07:00:57;;;;;;;9.10;5.30;;;10.30;99.90;;;;;;5053966;28;20242;-86
2023/04/27 07:03:23;;;;;;;10.43;5.40;;;10.50;99.90;;;;;;5034453;28;20663;-86
2023/04/27 07:05:50;;;;;;;9.07;5.33;;;10.50;99.90;;;;;;5031042;28;20221;-86
2023/04/27 07:08:16;;;;;;;5.97;5.37;;;10.70;99.90;;;;;;5022980;28;20207;-86
2023/04/27 07:10:42;;;;;;;6.97;5.37;;;10.80;99.90;;;;;;5033466;28;20191;-86
2023/04/27 07:13:08;;;;;;;6.27;5.03;;;10.80;99.90;;;;;;4998190;28;20183;-86
2023/04/27 07:15:34;;;;;;;7.50;5.60;;;10.80;99.90;;;;;;4997637;28;20182;-86
2023/04/27 07:18:00;;;;;;;7.07;5.27;;;10.80;99.90;;;;;;4999231;28;20202;-86
2023/04/27 07:20:25;;;;;;;8.97;5.47;;;10.90;99.90;;;;;;4974203;28;20262;-86
2023/04/27 07:22:51;;;;;;;7.53;5.87;;;11.10;99.90;;;;;;5012296;28;20194;-86
2023/04/27 07:25:18;;;;;;;8.80;5.50;;;11.20;99.90;;;;;;4994978;28;20277;-86
2023/04/27 07:27:45;;;;;;;6.73;5.73;;;11.40;99.90;;;;;;5012113;28;20691;-86
2023/04/27 07:30:13;;;;;;;7.23;5.73;;;11.70;99.90;;;;;;4995200;28;20281;-86
2023/04/27 07:32:42;;;;;;;6.10;5.50;;;11.90;99.90;;;;;;4995747;28;20218;-87
2023/04/27 07:35:09;;;;;;;6.70;6.00;;;12.00;99.90;;;;;;4998385;28;20178;-86
2023/04/27 07:37:37;;;;;;;7.80;5.70;;;12.20;99.90;;;;;;5003664;28;20656;-86
2023/04/27 07:40:15;;;;;;;6.80;5.53;;;12.30;99.90;;;;;;5012070;28;20187;-86
2023/04/27 07:42:41;;;;;;;8.53;6.07;;;12.60;99.90;;;;;;4994892;28;20192;-86
2023/04/27 07:45:08;;;;;;;7.50;5.10;;;12.80;99.90;;;;;;4994901;28;20194;-87
2023/04/27 07:47:34;;;;;;;5.70;5.10;;;12.90;99.90;;;;;;4995317;28;20211;-86
2023/04/27 07:50:00;;;;;;;8.27;5.50;;;13.10;99.90;;;;;;4995248;28;20209;-86
2023/04/27 07:52:26;;;;;;;8.53;5.03;;;13.20;99.90;;;;;;4995358;28;20233;-86
2023/04/27 07:54:52;;;;;;;6.87;5.07;;;13.30;99.90;;;;;;4994133;28;20269;-86
2023/04/27 07:57:18;;;;;;;6.60;5.13;;;13.30;99.90;;;;;;5005121;28;20232;-86
2023/04/27 07:59:44;;;;;;;6.87;5.50;;;13.40;99.90;;;;;;4998578;28;20189;-86
2023/04/27 08:02:10;;;;;;;5.97;5.30;;;13.40;99.90;;;;;;5031241;28;20213;-86
2023/04/27 08:04:36;;;;;;;8.90;5.53;;;13.40;99.90;;;;;;5014125;28;20178;-86
2023/04/27 08:07:02;;;;;;;7.40;5.50;;;13.50;99.90;;;;;;4998379;28;20194;-87
2023/04/27 08:09:28;;;;;;;8.47;5.40;;;13.30;99.90;;;;;;4993762;28;20234;-86
2023/04/27 08:11:54;;;;;;;6.30;5.43;;;13.20;99.90;;;;;;5014768;28;20232;-86
2023/04/27 08:14:20;;;;;;;7.13;4.90;;;13.20;99.90;;;;;;4997144;28;20178;-86
2023/04/27 08:16:46;;;;;;;5.73;5.13;;;13.40;99.90;;;;;;5013952;28;20186;-86
2023/04/27 08:19:12;;;;;;;10.17;5.23;;;13.50;99.90;;;;;;5014821;28;20240;-86
2023/04/27 08:21:38;;;;;;;6.77;4.80;;;13.70;99.90;;;;;;5013848;28;20181;-86
2023/04/27 08:24:05;;;;;;;4.50;4.10;;;13.50;99.90;;;;;;4998262;28;20189;-86
2023/04/27 08:26:32;;;;;;;5.50;4.73;;;13.70;99.90;;;;;;4997657;28;20202;-86
2023/04/27 08:28:58;;;;;;;5.50;4.83;;;13.70;99.90;;;;;;5014393;28;20217;-86
2023/04/27 08:31:25;;;;;;;5.77;4.40;;;13.70;99.90;;;;;;5013293;28;20650;-86
2023/04/27 08:33:52;;;;;;;5.50;4.73;;;13.70;99.90;;;;;;5013994;28;20225;-86
2023/04/27 08:36:23;;;;;;;6.70;4.37;;;13.80;99.90;;;;;;4997036;28;20179;-86
2023/04/27 08:38:50;;;;;;;5.03;4.43;;;13.90;99.90;;;;;;4999901;28;20209;-86
2023/04/27 08:41:20;;;;;;;5.67;4.30;;;13.90;99.90;;;;;;5014034;28;20186;-86
2023/04/27 08:43:50;;;;;;;5.40;4.50;;;13.80;99.90;;;;;;5013233;28;20753;-86
2023/04/27 08:46:20;;;;;;;6.53;4.10;;;13.80;99.90;;;;;;5031201;28;20190;-86
2023/04/27 08:48:49;;;;;;;4.47;3.63;;;13.90;99.90;;;;;;5013066;28;20311;-86
2023/04/27 08:51:15;;;;;;;8.43;4.60;;;14.00;99.90;;;;;;5012229;28;20182;-86
2023/04/27 08:53:49;;;;;;;6.50;4.30;;;14.00;99.90;;;;;;5012188;28;20181;-86
2023/04/27 08:56:16;;;;;;;5.53;4.70;;;14.10;99.90;;;;;;5012886;28;20170;-86
2023/04/27 08:58:42;;;;;;;4.83;4.33;;;14.30;99.90;;;;;;5013013;28;20333;-87
2023/04/27 09:01:08;;;;;;;6.27;4.23;;;14.40;99.90;;;;;;5013594;28;20408;-87
2023/04/27 09:03:36;;;;;;;6.77;4.53;;;14.50;99.90;;;;;;5013773;28;20184;-86
2023/04/27 09:06:03;;;;;;;8.97;4.90;;;14.40;99.90;;;;;;5012283;28;20197;-86
2023/04/27 09:08:42;;;;;;;6.87;4.53;;;14.30;99.90;;;;;;5003097;28;20222;-86
2023/04/27 09:11:08;;;;;;;5.70;3.70;;;14.30;99.90;;;;;;5021162;28;20173;-87
2023/04/27 09:13:35;;;;;;;6.90;4.00;;;14.30;99.90;;;;;;5017548;28;20178;-86
2023/04/27 09:16:01;;;;;;;4.47;3.97;;;14.40;99.90;;;;;;5011817;28;20185;-86
2023/04/27 09:18:28;;;;;;;7.43;4.47;;;14.60;99.90;;;;;;5013398;28;20229;-86
2023/04/27 09:20:53;;;;;;;7.43;3.90;;;14.70;99.90;;;;;;5031042;28;20193;-86
2023/04/27 09:23:30;;;;;;;4.13;3.63;;;14.90;99.90;;;;;;5013161;28;20190;-86
2023/04/27 09:26:07;;;;;;;5.63;3.07;;;15.00;99.90;;;;;;5012958;28;20277;-86
2023/04/27 09:28:36;;;;;;;4.93;3.40;;;15.20;99.90;;;;;;5013280;28;20206;-86
2023/04/27 09:31:03;;;;;;;5.00;3.37;;;15.30;99.90;;;;;;5013263;28;20224;-86
2023/04/27 09:33:34;;;;;;;5.77;3.60;;;15.60;99.90;;;;;;5013468;28;20185;-87
2023/04/27 09:36:06;;;;;;;5.43;3.53;;;15.90;99.90;;;;;;4992765;28;20178;-86
2023/04/27 09:38:33;;;;;;;3.67;2.87;;;16.20;99.90;;;;;;5009766;28;20207;-86
2023/04/27 09:40:59;;;;;;;6.13;2.70;;;16.40;99.90;;;;;;4977373;28;20280;-87
2023/04/27 09:43:27;;;;;;;5.53;3.67;;;16.50;99.90;;;;;;4993072;28;20183;-87
2023/04/27 09:45:57;;;;;;;7.37;3.73;;;16.50;99.90;;;;;;4992219;28;20659;-87
2023/04/27 09:48:25;;;;;;;3.50;3.03;;;16.30;99.90;;;;;;4993162;28;20675;-86
2023/04/27 09:50:51;;;;;;;5.30;2.77;;;16.20;99.90;;;;;;4993609;28;20181;-87
2023/04/27 09:53:21;;;;;;;6.07;3.17;;;16.30;99.90;;;;;;4975397;28;20181;-87
2023/04/27 09:56:15;;;;;;;3.87;2.90;;;16.30;99.90;;;;;;4975049;28;20175;-86
2023/04/27 09:58:49;;;;;;;4.40;3.17;;;16.20;99.90;;;;;;4993413;28;20206;-86
2023/04/27 10:01:55;;;;;;;5.70;2.93;;;16.10;99.90;;;;;;4992975;28;20647;-77
2023/04/27 10:04:50;;;;;;;4.40;3.20;;;16.20;99.90;;;;;;4961346;28;20270;-77
2023/04/27 10:07:17;;;;;;;4.70;3.10;;;16.40;99.90;;;;;;4974053;28;20295;-77
2023/04/27 10:09:45;;;;;;;4.83;2.80;;;16.50;99.90;;;;;;4986412;28;20226;-87
2023/04/27 10:12:27;;;;;;;4.37;2.73;;;16.60;99.90;;;;;;5032627;28;20181;-87
2023/04/27 10:14:56;;;;;;;4.87;2.60;;;16.70;99.90;;;;;;4996675;28;20595;-86
2023/04/27 10:17:25;;;;;;;3.77;2.70;;;16.50;99.90;;;;;;5014472;28;20197;-86
2023/04/27 10:20:00;;;;;;;6.37;2.40;;;16.40;99.90;;;;;;5022745;28;20187;-86
2023/04/27 10:22:40;;;;;;;3.57;2.33;;;16.50;99.90;;;;;;5013319;28;20183;-87
2023/04/27 10:25:29;;;;;;;5.13;2.50;;;16.60;99.90;;;;;;5002435;28;20182;-87
2023/04/27 10:27:58;;;;;;;2.83;2.53;;;16.70;99.90;;;;;;5016396;28;20206;-87
2023/04/27 10:30:33;;;;;;;4.63;2.42;;;16.90;99.90;;;;;;5017096;28;20185;-86
2023/04/27 10:33:08;;;;;;;4.50;2.23;;;16.90;99.90;;;;;;5014850;28;20178;-87
2023/04/27 10:35:36;;;;;;;3.90;2.43;;;16.90;99.90;;;;;;5007863;28;20182;-86
2023/04/27 10:38:26;;;;;;;3.85;2.30;;;16.80;99.90;;;;;;5012550;28;20199;-87
2023/04/27 10:41:04;;;;;;;4.13;2.75;;;16.80;99.90;;;;;;4985845;28;20175;-87
2023/04/27 10:43:32;;;;;;;3.93;2.33;;;16.90;99.90;;;;;;5034741;28;20175;-87
2023/04/27 10:46:12;;;;;;;5.37;2.93;;;16.90;99.90;;;;;;5013185;28;20237;-87
2023/04/27 10:48:39;;;;;;;8.30;3.47;;;16.90;99.90;;;;;;4996390;28;20214;-87
2023/04/27 10:51:06;;;;;;;9.07;3.90;;;17.00;99.90;;;;;;4996898;28;20278;-87
2023/04/27 10:53:36;;;;;;;3.63;2.28;;;17.30;99.90;;;;;;4996805;28;20171;-87
2023/04/27 10:56:05;;;;;;;4.00;2.75;;;17.50;99.90;;;;;;4996345;28;20219;-87
2023/04/27 10:58:32;;;;;;;3.10;2.38;;;17.70;99.90;;;;;;5012811;28;20194;-87
2023/04/27 11:00:58;;;;;;;4.95;3.00;;;17.90;99.90;;;;;;5013032;28;20670;-87
2023/04/27 11:03:24;;;;;;;3.83;2.30;;;18.00;99.90;;;;;;4996651;28;20187;-87
2023/04/27 11:06:09;;;;;;;4.97;2.58;;;18.00;99.90;;;;;;5008133;28;20341;-85
2023/04/27 11:08:43;;;;;;;2.85;2.40;;;18.20;99.90;;;;;;5008727;28;20261;-82
2023/04/27 11:11:13;;;;;;;20.65;8.93;;;18.10;99.90;;;;;;5019206;28;20242;-84
2023/04/27 11:13:42;;;;;;;7.72;4.25;;;18.10;99.90;;;;;;5004581;28;20179;-87
2023/04/27 11:16:08;;;;;;;5.18;2.92;;;18.20;99.90;;;;;;5007591;28;20183;-87
2023/04/27 11:18:37;;;;;;;3.50;2.40;;;18.30;99.90;;;;;;4992942;28;20211;-87
2023/04/27 11:21:14;;;;;;;3.38;2.13;;;18.20;99.90;;;;;;5009106;28;20179;-87
2023/04/27 11:23:43;;;;;;;3.90;2.15;;;18.50;99.90;;;;;;5014096;28;20670;-87
2023/04/27 11:26:14;;;;;;;4.70;2.70;;;18.50;99.90;;;;;;5012256;28;20190;-87
2023/04/27 11:28:42;;;;;;;3.67;2.25;;;18.50;99.90;;;;;;5013173;28;20218;-87
2023/04/27 11:31:08;;;;;;;3.03;2.20;;;18.60;99.90;;;;;;5013957;28;20202;-87
2023/04/27 11:33:36;;;;;;;5.25;2.25;;;18.80;99.90;;;;;;5018360;28;20210;-87
2023/04/27 11:36:03;;;;;;;7.90;2.80;;;19.10;99.90;;;;;;4990564;28;20191;-87
2023/04/27 11:38:32;;;;;;;3.58;2.33;;;19.40;99.90;;;;;;5025210;28;20194;-87
2023/04/27 11:41:07;;;;;;;3.53;2.35;;;19.10;99.90;;;;;;5001312;28;20179;-87
2023/04/27 11:43:36;;;;;;;3.65;2.50;;;19.00;99.90;;;;;;5015191;28;20265;-86
2023/04/27 11:46:09;;;;;;;2.50;1.83;;;19.00;99.90;;;;;;5022569;28;20269;-87
2023/04/27 11:48:36;;;;;;;2.60;2.13;;;19.20;99.90;;;;;;5008021;28;20211;-87
2023/04/27 11:51:03;;;;;;;3.55;2.00;;;19.20;99.90;;;;;;5011370;28;20681;-86
2023/04/27 11:53:34;;;;;;;2.47;1.85;;;18.90;99.90;;;;;;5010061;28;20172;-88
2023/04/27 11:56:03;;;;;;;2.13;1.77;;;18.80;99.90;;;;;;4995647;28;20167;-87
2023/04/27 11:58:32;;;;;;;4.72;2.15;;;18.80;99.90;;;;;;5015611;28;20217;-86
2023/04/27 12:00:58;;;;;;;3.47;2.10;;;18.70;99.90;;;;;;5023744;28;20174;-86
2023/04/27 12:03:24;;;;;;;3.78;2.10;;;18.70;99.90;;;;;;5042020;28;20235;-87
2023/04/27 12:05:51;;;;;;;4.65;1.80;;;18.50;99.90;;;;;;5057709;28;20205;-86
2023/04/27 12:08:17;;;;;;;4.20;2.05;;;18.50;99.90;;;;;;5033335;28;20209;-87
2023/04/27 12:10:44;;;;;;;2.55;2.00;;;18.60;99.90;;;;;;5048948;28;20177;-87
2023/04/27 12:13:11;;;;;;;2.95;2.22;;;18.60;99.90;;;;;;5051518;28;20174;-87
2023/04/27 12:15:37;;;;;;;3.63;1.73;;;18.70;99.90;;;;;;5033356;28;20184;-87
2023/04/27 12:18:04;;;;;;;2.97;2.00;;;18.90;99.90;;;;;;5034471;28;20323;-87
2023/04/27 12:20:30;;;;;;;5.38;2.33;;;18.90;99.90;;;;;;5034952;28;20181;-87
2023/04/27 12:22:56;;;;;;;2.08;1.88;;;19.00;99.90;;;;;;5051673;28;20174;-87
2023/04/27 12:25:23;;;;;;;3.58;1.80;;;19.10;99.90;;;;;;5043018;28;20227;-87
2023/04/27 12:27:49;;;;;;;3.53;1.90;;;19.10;99.90;;;;;;5030446;28;20193;-87
2023/04/27 12:30:16;;;;;;;2.20;2.00;;;19.00;99.90;;;;;;5030101;28;20211;-86
2023/04/27 12:32:42;;;;;;;1.60;1.50;;;19.00;99.90;;;;;;5049936;28;20197;-87
2023/04/27 12:35:09;;;;;;;2.95;1.67;;;19.00;99.90;;;;;;5046654;28;20174;-88
2023/04/27 12:37:35;;;;;;;2.78;2.00;;;19.00;99.90;;;;;;5028391;28;20210;-88
2023/04/27 12:40:05;;;;;;;2.83;2.05;;;18.90;99.90;;;;;;5042601;28;20183;-88
2023/04/27 12:42:31;;;;;;;3.28;1.80;;;18.60;99.90;;;;;;5043046;28;20208;-87
2023/04/27 12:44:57;;;;;;;2.75;1.70;;;18.70;99.90;;;;;;5031542;28;20293;-89
2023/04/27 12:47:24;;;;;;;2.95;1.70;;;18.70;99.90;;;;;;5038573;28;20287;-88
2023/04/27 12:49:53;;;;;;;4.50;2.00;;;18.60;99.90;;;;;;5061893;28;20201;-88
2023/04/27 12:52:19;;;;;;;2.67;1.70;;;18.30;99.90;;;;;;5056507;28;20239;-87
2023/04/27 12:54:46;;;;;;;3.47;2.05;;;18.10;99.90;;;;;;5042786;28;20185;-88
2023/04/27 12:57:12;;;;;;;1.75;1.63;;;18.20;99.90;;;;;;5035085;28;20235;-88